Time;durP1;ratioP1;P1;durP2;ratioP2;P2;SDS_P1;SDS_P2;PMS_P1;PMS_P2;Temp;Humidity;BMP_temperature;BMP_pressure;BME280_temperature;BME280_humidity;BME280_pressure;Samples;Min_cycle;Max_cycle;Signal;HPM_P1;HPM_P2
2023/02/01 05:32:26;;;;;;;;;7.33;4.33;;;;;;;;6397000;22;46880;-63
2023/02/01 05:34:51;;;;;;;;;7.00;5.00;;;;;;;;6403686;22;45241;-62
2023/02/01 05:37:16;;;;;;;;;9.67;3.00;;;;;;;;6375374;22;45272;-63
2023/02/01 05:39:41;;;;;;;;;4.67;3.67;;;;;;;;6404328;22;45214;-63
2023/02/01 05:42:07;;;;;;;;;13.00;4.00;;;;;;;;6403425;22;45503;-63
2023/02/01 05:44:32;;;;;;;;;4.00;3.33;;;;;;;;6403762;22;45205;-63
2023/02/01 05:46:57;;;;;;;;;6.67;4.33;;;;;;;;6403304;22;45139;-62
2023/02/01 05:49:22;;;;;;;;;4.67;3.67;;;;;;;;6404222;22;45217;-63
2023/02/01 05:51:47;;;;;;;;;5.67;4.00;;;;;;;;6403309;22;46933;-63
2023/02/01 05:54:14;;;;;;;;;5.33;4.67;;;;;;;;6402008;22;45244;-63
2023/02/01 05:56:40;;;;;;;;;5.00;4.00;;;;;;;;6403428;22;45191;-62
2023/02/01 05:59:05;;;;;;;;;7.33;5.33;;;;;;;;6402775;22;45222;-62
2023/02/01 06:01:31;;;;;;;;;4.33;3.00;;;;;;;;6374783;22;46081;-63
2023/02/01 06:03:56;;;;;;;;;7.67;5.67;;;;;;;;6403241;22;45232;-62
2023/02/01 06:06:21;;;;;;;;;6.67;4.00;;;;;;;;6403515;22;45206;-63
2023/02/01 06:08:46;;;;;;;;;6.00;4.67;;;;;;;;6403364;22;45410;-62
2023/02/01 06:11:13;;;;;;;;;11.00;4.33;;;;;;;;6373800;22;46410;-63
2023/02/01 06:13:38;;;;;;;;;3.33;3.33;;;;;;;;6403591;22;45266;-63
2023/02/01 06:16:05;;;;;;;;;5.33;4.33;;;;;;;;6402397;22;45867;-64
2023/02/01 06:18:31;;;;;;;;;5.33;5.00;;;;;;;;6404882;22;45646;-64
2023/02/01 06:20:57;;;;;;;;;12.00;6.00;;;;;;;;6402278;22;46063;-63
2023/02/01 06:23:23;;;;;;;;;3.33;3.00;;;;;;;;6403638;22;45156;-63
2023/02/01 06:25:49;;;;;;;;;5.00;4.00;;;;;;;;6405102;22;45146;-63
2023/02/01 06:28:14;;;;;;;;;7.33;4.00;;;;;;;;6404443;22;45192;-63
2023/02/01 06:30:42;;;;;;;;;9.67;6.00;;;;;;;;6403742;22;45202;-62
2023/02/01 06:33:08;;;;;;;;;5.00;3.67;;;;;;;;6389017;22;45320;-63
2023/02/01 06:35:33;;;;;;;;;9.67;4.00;;;;;;;;6403717;22;45233;-63
2023/02/01 06:37:58;;;;;;;;;7.33;2.33;;;;;;;;6402422;22;45369;-63
2023/02/01 06:40:23;;;;;;;;;3.00;3.00;;;;;;;;6402004;22;46074;-63
2023/02/01 06:42:49;;;;;;;;;6.67;4.00;;;;;;;;6404242;22;45195;-63
2023/02/01 06:45:14;;;;;;;;;11.00;5.00;;;;;;;;6402878;22;45215;-63
2023/02/01 06:47:39;;;;;;;;;11.00;6.00;;;;;;;;6402168;22;45246;-65
2023/02/01 06:50:05;;;;;;;;;8.00;5.00;;;;;;;;6403513;22;46008;-66
2023/02/01 06:52:30;;;;;;;;;7.00;5.00;;;;;;;;6402978;22;45207;-66
2023/02/01 06:54:55;;;;;;;;;5.00;2.33;;;;;;;;6402630;22;45292;-65
2023/02/01 06:57:21;;;;;;;;;7.00;4.33;;;;;;;;6403134;22;45266;-66
2023/02/01 06:59:46;;;;;;;;;9.33;4.00;;;;;;;;6401813;22;45301;-66
2023/02/01 07:02:11;;;;;;;;;11.67;6.00;;;;;;;;6374764;22;45335;-66
2023/02/01 07:04:36;;;;;;;;;9.00;6.00;;;;;;;;6403364;22;45262;-66
2023/02/01 07:07:01;;;;;;;;;7.67;5.00;;;;;;;;6403050;22;45266;-66
2023/02/01 07:09:27;;;;;;;;;7.67;5.33;;;;;;;;6403983;22;46017;-66
2023/02/01 07:11:52;;;;;;;;;9.67;6.00;;;;;;;;6402668;22;45194;-66
2023/02/01 07:14:17;;;;;;;;;7.00;5.00;;;;;;;;6403951;22;45575;-66
2023/02/01 07:16:42;;;;;;;;;5.00;4.67;;;;;;;;6405173;22;45551;-66
2023/02/01 07:19:07;;;;;;;;;8.33;4.33;;;;;;;;6402355;22;46227;-66
2023/02/01 07:21:33;;;;;;;;;6.00;5.00;;;;;;;;6403700;22;45233;-66
2023/02/01 07:23:58;;;;;;;;;3.67;3.67;;;;;;;;6403111;22;45150;-65
2023/02/01 07:26:24;;;;;;;;;4.00;4.00;;;;;;;;6402823;22;45268;-65
2023/02/01 07:28:49;;;;;;;;;4.67;4.67;;;;;;;;6403373;22;46009;-61
2023/02/01 07:31:18;;;;;;;;;5.67;5.00;;;;;;;;6402319;22;45162;-60
2023/02/01 07:33:43;;;;;;;;;4.00;4.00;;;;;;;;6403835;22;45422;-61
2023/02/01 07:36:11;;;;;;;;;6.67;4.00;;;;;;;;6403242;22;45205;-61
2023/02/01 07:38:36;;;;;;;;;7.00;4.00;;;;;;;;6405062;22;46168;-61
2023/02/01 07:41:03;;;;;;;;;4.00;4.00;;;;;;;;6403462;22;45202;-61
2023/02/01 07:43:29;;;;;;;;;6.67;5.00;;;;;;;;6376510;22;45349;-62
2023/02/01 07:45:54;;;;;;;;;11.67;6.00;;;;;;;;6403117;22;45183;-61
2023/02/01 07:48:20;;;;;;;;;7.00;4.00;;;;;;;;6404857;22;45088;-64
2023/02/01 07:50:46;;;;;;;;;11.67;7.00;;;;;;;;6404794;22;45524;-64
2023/02/01 07:53:11;;;;;;;;;10.33;6.33;;;;;;;;6403576;22;45265;-62
2023/02/01 07:55:40;;;;;;;;;10.67;4.00;;;;;;;;6405258;22;45547;-62
2023/02/01 07:58:05;;;;;;;;;9.00;6.00;;;;;;;;6404216;22;46945;-62
2023/02/01 08:03:14;;;;;;;;;12.67;6.00;;;;;;;;6405300;22;45297;-62
2023/02/01 08:05:39;;;;;;;;;15.33;8.00;;;;;;;;6405310;22;45248;-61
2023/02/01 08:08:05;;;;;;;;;7.00;5.00;;;;;;;;6404808;22;47015;-61
2023/02/01 08:10:30;;;;;;;;;7.33;6.33;;;;;;;;6405822;22;45203;-61
2023/02/01 08:12:59;;;;;;;;;11.00;6.67;;;;;;;;6405268;22;45284;-61
2023/02/01 08:15:25;;;;;;;;;11.33;6.67;;;;;;;;6405384;22;45142;-61
2023/02/01 08:17:50;;;;;;;;;10.00;5.00;;;;;;;;6405476;22;45127;-62
2023/02/01 08:20:16;;;;;;;;;11.00;7.00;;;;;;;;6405622;22;45195;-61
2023/02/01 08:22:42;;;;;;;;;14.33;8.00;;;;;;;;6404067;22;45141;-61
2023/02/01 08:25:07;;;;;;;;;10.33;7.00;;;;;;;;6404069;22;45873;-62
2023/02/01 08:27:33;;;;;;;;;10.33;9.00;;;;;;;;6404550;22;45200;-61
2023/02/01 08:29:59;;;;;;;;;15.50;6.50;;;;;;;;6404152;22;45300;-61
2023/02/01 08:32:24;;;;;;;;;11.33;8.67;;;;;;;;6403777;22;45743;-62
2023/02/01 08:34:49;;;;;;;;;10.00;6.67;;;;;;;;6404913;22;45233;-62
2023/02/01 08:37:14;;;;;;;;;11.33;5.67;;;;;;;;6404535;22;45343;-62
2023/02/01 08:39:40;;;;;;;;;7.00;6.33;;;;;;;;6404394;22;45320;-61
2023/02/01 08:44:49;;;;;;;;;9.33;5.00;;;;;;;;6404930;22;45321;-62
2023/02/01 08:47:14;;;;;;;;;11.33;9.00;;;;;;;;6403728;22;45219;-62
2023/02/01 08:49:39;;;;;;;;;11.33;4.00;;;;;;;;6404606;22;45349;-62
2023/02/01 08:52:04;;;;;;;;;10.00;6.00;;;;;;;;6404683;22;45211;-62
2023/02/01 08:54:29;;;;;;;;;4.00;4.00;;;;;;;;6404690;22;45377;-62
2023/02/01 08:56:56;;;;;;;;;8.67;6.00;;;;;;;;6404256;22;45168;-62
2023/02/01 08:59:21;;;;;;;;;7.67;6.33;;;;;;;;6403765;22;45381;-62
2023/02/01 09:01:46;;;;;;;;;9.33;5.00;;;;;;;;6404868;22;45320;-62
2023/02/01 09:04:11;;;;;;;;;7.67;5.33;;;;;;;;6403884;22;45272;-61
2023/02/01 09:06:39;;;;;;;;;10.00;8.00;;;;;;;;6404621;22;45297;-62
2023/02/01 09:09:04;;;;;;;;;10.00;6.67;;;;;;;;6403635;22;45160;-62
2023/02/01 09:11:30;;;;;;;;;9.00;7.33;;;;;;;;6404973;22;45354;-62
2023/02/01 09:13:55;;;;;;;;;10.00;5.67;;;;;;;;6404150;22;45132;-62
2023/02/01 09:16:20;;;;;;;;;13.00;10.33;;;;;;;;6404014;22;46021;-62
2023/02/01 09:18:45;;;;;;;;;9.00;4.67;;;;;;;;6404423;22;45209;-61
2023/02/01 09:21:10;;;;;;;;;10.33;5.33;;;;;;;;6404167;22;45245;-63
2023/02/01 09:23:36;;;;;;;;;6.33;4.00;;;;;;;;6404808;22;45143;-62
2023/02/01 09:26:02;;;;;;;;;10.33;7.00;;;;;;;;6402944;22;46042;-63
2023/02/01 09:28:28;;;;;;;;;8.00;6.00;;;;;;;;6375946;22;45617;-61
2023/02/01 09:30:57;;;;;;;;;7.33;6.00;;;;;;;;6403138;22;45269;-61
2023/02/01 09:33:23;;;;;;;;;14.00;8.00;;;;;;;;6404117;22;45240;-62
2023/02/01 09:35:49;;;;;;;;;7.00;5.33;;;;;;;;6403590;22;46051;-63
2023/02/01 09:38:14;;;;;;;;;8.67;6.00;;;;;;;;6403938;22;45236;-62
2023/02/01 09:40:42;;;;;;;;;9.00;9.00;;;;;;;;6404331;22;45368;-63
2023/02/01 09:43:26;;;;;;;;;14.00;5.33;;;;;;;;6403607;22;45286;-62
2023/02/01 09:45:51;;;;;;;;;7.00;7.00;;;;;;;;6403336;22;46371;-62
2023/02/01 09:48:19;;;;;;;;;7.67;4.33;;;;;;;;6404482;22;45319;-62
2023/02/01 09:50:48;;;;;;;;;7.33;5.00;;;;;;;;6403943;22;45235;-62
2023/02/01 09:53:31;;;;;;;;;9.00;5.67;;;;;;;;6403984;22;45234;-62
2023/02/01 09:56:02;;;;;;;;;8.67;7.00;;;;;;;;6403403;22;45297;-61
2023/02/01 09:58:37;;;;;;;;;8.33;6.33;;;;;;;;6375398;22;45393;-62
2023/02/01 10:01:03;;;;;;;;;5.00;5.00;;;;;;;;6403385;22;45131;-62
2023/02/01 10:03:32;;;;;;;;;12.33;7.67;;;;;;;;6403745;22;45346;-62
2023/02/01 10:06:17;;;;;;;;;8.67;7.00;;;;;;;;6403341;22;45290;-62
2023/02/01 10:08:55;;;;;;;;;7.67;5.00;;;;;;;;6404039;22;45284;-62
2023/02/01 10:11:30;;;;;;;;;8.00;7.00;;;;;;;;6404394;22;45384;-62
2023/02/01 10:14:03;;;;;;;;;8.00;7.67;;;;;;;;6403912;22;45084;-62
2023/02/01 10:16:30;;;;;;;;;5.00;4.33;;;;;;;;6404181;22;46382;-62
2023/02/01 10:19:07;;;;;;;;;14.67;8.67;;;;;;;;6403055;22;45246;-61
2023/02/01 10:21:41;;;;;;;;;8.00;7.33;;;;;;;;6404157;22;45517;-62
2023/02/01 10:24:29;;;;;;;;;7.67;6.00;;;;;;;;6403319;22;45396;-62
2023/02/01 10:26:59;;;;;;;;;9.00;8.00;;;;;;;;6403677;22;46249;-62
2023/02/01 10:29:27;;;;;;;;;10.33;7.33;;;;;;;;6404998;22;45288;-62
2023/02/01 10:31:52;;;;;;;;;8.33;5.00;;;;;;;;6403535;22;45323;-61
2023/02/01 10:34:22;;;;;;;;;8.00;5.00;;;;;;;;6403936;22;45281;-62
2023/02/01 10:36:52;;;;;;;;;9.67;4.67;;;;;;;;6403860;22;45224;-62
2023/02/01 10:39:17;;;;;;;;;12.33;7.67;;;;;;;;6403246;22;45139;-62
2023/02/01 10:41:45;;;;;;;;;14.00;10.67;;;;;;;;6403388;22;45365;-62
2023/02/01 10:44:13;;;;;;;;;3.67;3.67;;;;;;;;6374941;22;45788;-63
2023/02/01 10:46:38;;;;;;;;;5.00;5.00;;;;;;;;6402899;22;46908;-63
2023/02/01 10:49:06;;;;;;;;;9.00;9.00;;;;;;;;6403039;22;45393;-62
2023/02/01 10:51:40;;;;;;;;;13.33;8.67;;;;;;;;6403271;22;45230;-62
2023/02/01 10:54:31;;;;;;;;;5.33;4.00;;;;;;;;6402428;22;45130;-62
2023/02/01 10:56:56;;;;;;;;;8.67;6.00;;;;;;;;6403096;22;45373;-62
2023/02/01 10:59:24;;;;;;;;;8.33;6.00;;;;;;;;6403337;22;45292;-62
2023/02/01 11:01:50;;;;;;;;;11.00;4.67;;;;;;;;6403726;22;45292;-63
2023/02/01 11:04:16;;;;;;;;;8.67;7.33;;;;;;;;6402359;22;45361;-62
2023/02/01 11:06:43;;;;;;;;;6.33;5.00;;;;;;;;6403021;22;46932;-62
2023/02/01 11:09:09;;;;;;;;;6.33;6.00;;;;;;;;6402891;22;45306;-61
2023/02/01 11:11:46;;;;;;;;;11.00;6.33;;;;;;;;6403417;22;45250;-64
2023/02/01 11:14:19;;;;;;;;;12.67;7.00;;;;;;;;6404674;22;45218;-63
2023/02/01 11:16:53;;;;;;;;;6.00;6.00;;;;;;;;6403636;22;45349;-62
2023/02/01 11:19:18;;;;;;;;;7.33;5.67;;;;;;;;6404928;22;45353;-62
2023/02/01 11:21:46;;;;;;;;;13.33;8.33;;;;;;;;6404623;22;45274;-63
2023/02/01 11:24:18;;;;;;;;;73.25;57.75;;;;;;;;6404549;22;45313;-63
2023/02/01 11:26:44;;;;;;;;;55.00;38.33;;;;;;;;6403846;22;46325;-63
2023/02/01 11:29:14;;;;;;;;;59.75;47.00;;;;;;;;6403196;22;45277;-63
2023/02/01 11:31:41;;;;;;;;;14.67;11.67;;;;;;;;6403396;22;45470;-65
2023/02/01 11:34:21;;;;;;;;;19.00;11.00;;;;;;;;6401555;22;45362;-64
2023/02/01 11:36:48;;;;;;;;;6.00;6.00;;;;;;;;6404398;22;46398;-65
2023/02/01 11:39:13;;;;;;;;;7.67;6.00;;;;;;;;6403487;22;45281;-64
2023/02/01 11:41:42;;;;;;;;;7.00;6.00;;;;;;;;6403785;22;45171;-64
2023/02/01 11:44:30;;;;;;;;;7.33;5.33;;;;;;;;6403510;22;45179;-64
2023/02/01 11:47:12;;;;;;;;;9.33;5.00;;;;;;;;6385176;22;45335;-65
2023/02/01 11:49:37;;;;;;;;;11.67;4.67;;;;;;;;6403126;22;45230;-63
2023/02/01 11:52:25;;;;;;;;;10.33;7.33;;;;;;;;6403682;22;45350;-63
2023/02/01 11:55:09;;;;;;;;;6.00;6.00;;;;;;;;6329468;22;45263;-63
2023/02/01 11:57:41;;;;;;;;;9.67;7.67;;;;;;;;6402866;22;45282;-64
2023/02/01 12:00:20;;;;;;;;;5.33;5.33;;;;;;;;6403190;22;45403;-63
2023/02/01 12:03:00;;;;;;;;;9.67;4.33;;;;;;;;6403531;22;45717;-63
2023/02/01 12:05:41;;;;;;;;;13.67;7.00;;;;;;;;6374734;22;45425;-63
2023/02/01 12:08:17;;;;;;;;;11.67;6.67;;;;;;;;6402125;22;45305;-66
2023/02/01 12:10:45;;;;;;;;;8.00;5.00;;;;;;;;6402004;22;45285;-62
2023/02/01 12:13:19;;;;;;;;;10.00;5.33;;;;;;;;6402671;22;45481;-63
2023/02/01 12:16:11;;;;;;;;;6.00;4.00;;;;;;;;6404811;22;45174;-63
2023/02/01 12:18:40;;;;;;;;;9.67;5.00;;;;;;;;6404297;22;45643;-64
2023/02/01 12:21:25;;;;;;;;;5.00;5.00;;;;;;;;6403834;22;45166;-64
2023/02/01 12:23:59;;;;;;;;;6.33;2.67;;;;;;;;6403538;22;45407;-63
2023/02/01 12:26:30;;;;;;;;;7.33;5.00;;;;;;;;6404089;22;45229;-63
2023/02/01 12:29:14;;;;;;;;;6.33;4.67;;;;;;;;6403642;22;46325;-63
2023/02/01 12:31:42;;;;;;;;;6.67;4.33;;;;;;;;6403960;22;45322;-63
2023/02/01 12:34:22;;;;;;;;;6.00;4.00;;;;;;;;6403944;22;45337;-63
2023/02/01 12:37:00;;;;;;;;;3.00;3.00;;;;;;;;6405085;22;45384;-63
2023/02/01 12:39:32;;;;;;;;;4.67;3.00;;;;;;;;6404062;22;46374;-63
2023/02/01 12:42:00;;;;;;;;;5.67;3.00;;;;;;;;6403633;22;45328;-63
2023/02/01 12:44:37;;;;;;;;;2.67;2.67;;;;;;;;6403841;22;45672;-63
2023/02/01 12:47:07;;;;;;;;;6.67;4.00;;;;;;;;6403552;22;45495;-63
2023/02/01 12:49:45;;;;;;;;;4.00;4.00;;;;;;;;6404115;22;45293;-63
2023/02/01 12:52:14;;;;;;;;;6.00;4.33;;;;;;;;6403581;22;45294;-64
2023/02/01 12:54:53;;;;;;;;;5.00;2.33;;;;;;;;6404201;22;45551;-63
2023/02/01 12:57:25;;;;;;;;;5.33;3.00;;;;;;;;6404128;22;45415;-64
2023/02/01 13:00:05;;;;;;;;;8.33;5.00;;;;;;;;6403856;22;45206;-63
2023/02/01 13:02:42;;;;;;;;;5.33;3.67;;;;;;;;6404854;22;45220;-63
2023/02/01 13:05:28;;;;;;;;;5.00;5.00;;;;;;;;6404182;22;45336;-62
2023/02/01 13:07:58;;;;;;;;;7.67;4.33;;;;;;;;6403669;22;45477;-63
2023/02/01 13:10:41;;;;;;;;;4.00;3.00;;;;;;;;6403782;22;46346;-63
2023/02/01 13:13:09;;;;;;;;;5.00;4.00;;;;;;;;6403492;22;45231;-63
2023/02/01 13:15:43;;;;;;;;;1.00;1.00;;;;;;;;6375673;22;45282;-64
2023/02/01 13:18:13;;;;;;;;;5.00;3.33;;;;;;;;6374561;22;45537;-63
2023/02/01 13:20:44;;;;;;;;;9.00;5.00;;;;;;;;6404046;22;45276;-63
2023/02/01 13:23:14;;;;;;;;;6.33;6.00;;;;;;;;6403995;22;45326;-63
2023/02/01 13:25:50;;;;;;;;;3.00;3.00;;;;;;;;6404687;22;45356;-64
2023/02/01 13:28:18;;;;;;;;;6.33;4.00;;;;;;;;6403990;22;45207;-63
2023/02/01 13:30:58;;;;;;;;;5.00;5.00;;;;;;;;6403530;22;45265;-63
2023/02/01 13:33:23;;;;;;;;;6.33;5.00;;;;;;;;6403069;22;45543;-63
2023/02/01 13:35:53;;;;;;;;;8.00;4.67;;;;;;;;6374976;22;45396;-64
2023/02/01 13:38:34;;;;;;;;;5.00;3.00;;;;;;;;6404068;22;45233;-65
2023/02/01 13:41:18;;;;;;;;;7.00;4.00;;;;;;;;6403584;22;46421;-63
2023/02/01 13:43:44;;;;;;;;;5.67;4.33;;;;;;;;6403838;22;45321;-63
2023/02/01 13:46:14;;;;;;;;;8.67;4.67;;;;;;;;6403943;22;45270;-63
2023/02/01 13:48:45;;;;;;;;;5.00;5.00;;;;;;;;6403124;22;45301;-63
2023/02/01 13:51:12;;;;;;;;;7.33;4.67;;;;;;;;6403601;22;45174;-62
2023/02/01 13:53:43;;;;;;;;;5.00;4.00;;;;;;;;6404201;22;45277;-63
2023/02/01 13:56:15;;;;;;;;;5.00;4.00;;;;;;;;6403744;22;45306;-63
2023/02/01 13:58:41;;;;;;;;;6.33;4.33;;;;;;;;6404500;22;45316;-63
2023/02/01 14:01:21;;;;;;;;;6.00;3.67;;;;;;;;6402685;22;46820;-63
2023/02/01 14:03:48;;;;;;;;;6.00;4.00;;;;;;;;6403665;22;45256;-63
2023/02/01 14:06:18;;;;;;;;;10.00;5.67;;;;;;;;6402080;22;45411;-63
2023/02/01 14:08:44;;;;;;;;;5.67;4.00;;;;;;;;6403947;22;45395;-63
2023/02/01 14:11:28;;;;;;;;;5.00;4.00;;;;;;;;6402286;22;46900;-63
2023/02/01 14:13:53;;;;;;;;;2.00;2.00;;;;;;;;6401294;22;45220;-62
2023/02/01 14:16:18;;;;;;;;;6.00;4.33;;;;;;;;6402965;22;45255;-63
2023/02/01 14:18:46;;;;;;;;;7.00;5.00;;;;;;;;6403755;22;45167;-63
2023/02/01 14:21:30;;;;;;;;;4.00;3.67;;;;;;;;6402536;22;46370;-62
2023/02/01 14:23:58;;;;;;;;;7.33;4.67;;;;;;;;6402892;22;45218;-62
2023/02/01 14:26:40;;;;;;;;;5.00;5.00;;;;;;;;6402816;22;45351;-63
2023/02/01 14:29:14;;;;;;;;;10.67;3.00;;;;;;;;6403072;22;45284;-63
2023/02/01 14:31:42;;;;;;;;;5.00;3.67;;;;;;;;6394808;22;47253;-64
2023/02/01 14:34:12;;;;;;;;;11.33;6.67;;;;;;;;6402133;22;45390;-62
2023/02/01 14:36:47;;;;;;;;;8.33;5.00;;;;;;;;6403175;22;45281;-63
2023/02/01 14:39:26;;;;;;;;;4.00;4.00;;;;;;;;6402341;22;45450;-62
2023/02/01 14:41:59;;;;;;;;;8.00;4.67;;;;;;;;6402113;22;45256;-62
2023/02/01 14:44:29;;;;;;;;;6.00;4.00;;;;;;;;6403869;22;45259;-63
2023/02/01 14:47:09;;;;;;;;;5.67;4.33;;;;;;;;6405196;22;45341;-62
2023/02/01 14:49:48;;;;;;;;;7.00;4.00;;;;;;;;6402085;22;45669;-63
2023/02/01 14:52:16;;;;;;;;;4.00;2.33;;;;;;;;6404605;22;47154;-63
2023/02/01 14:54:42;;;;;;;;;4.33;3.67;;;;;;;;6400748;22;45289;-62
2023/02/01 14:57:15;;;;;;;;;6.00;4.33;;;;;;;;6403754;22;45406;-62
2023/02/01 14:59:40;;;;;;;;;7.67;5.00;;;;;;;;6405463;22;45280;-62
2023/02/01 15:02:16;;;;;;;;;7.00;4.00;;;;;;;;6404684;22;45300;-62
2023/02/01 15:04:42;;;;;;;;;5.33;5.33;;;;;;;;6404792;22;45259;-63
2023/02/01 15:07:11;;;;;;;;;7.33;3.00;;;;;;;;6404510;22;45289;-62
2023/02/01 15:09:44;;;;;;;;;3.67;3.00;;;;;;;;6375820;22;45291;-63
2023/02/01 15:12:10;;;;;;;;;4.00;4.00;;;;;;;;6403752;22;45611;-62
2023/02/01 15:14:36;;;;;;;;;9.33;3.33;;;;;;;;6405204;22;45249;-62
2023/02/01 15:17:02;;;;;;;;;5.00;4.00;;;;;;;;6404564;22;45555;-63
2023/02/01 15:19:28;;;;;;;;;3.67;3.00;;;;;;;;6404862;22;45175;-62
2023/02/01 15:21:55;;;;;;;;;4.33;2.33;;;;;;;;6403986;22;45394;-63
2023/02/01 15:24:23;;;;;;;;;5.00;0.00;;;;;;;;6405092;22;45631;-63
2023/02/01 15:26:49;;;;;;;;;5.00;4.00;;;;;;;;6404688;22;45399;-61
2023/02/01 15:29:15;;;;;;;;;2.00;2.00;;;;;;;;6404268;22;45217;-63
2023/02/01 15:31:50;;;;;;;;;8.00;3.67;;;;;;;;6403928;22;45183;-62
2023/02/01 15:34:16;;;;;;;;;4.00;3.00;;;;;;;;6402893;22;45225;-63
2023/02/01 15:36:42;;;;;;;;;5.33;2.33;;;;;;;;6403327;22;45226;-62
2023/02/01 15:39:19;;;;;;;;;5.00;3.33;;;;;;;;6402696;22;45233;-62
2023/02/01 15:42:15;;;;;;;;;4.00;2.33;;;;;;;;6402679;22;45257;-62
2023/02/01 15:44:41;;;;;;;;;7.00;4.00;;;;;;;;6374732;22;45302;-62
2023/02/01 15:47:12;;;;;;;;;7.00;4.00;;;;;;;;6402231;22;45328;-62
2023/02/01 15:49:40;;;;;;;;;6.00;1.33;;;;;;;;6402820;22;45206;-62
2023/02/01 15:52:15;;;;;;;;;4.00;2.00;;;;;;;;6402316;22;45226;-63
2023/02/01 15:54:48;;;;;;;;;3.00;3.00;;;;;;;;6402459;22;45773;-62
2023/02/01 15:57:19;;;;;;;;;5.00;2.00;;;;;;;;6402369;22;45230;-63
2023/02/01 15:59:45;;;;;;;;;6.00;1.67;;;;;;;;6402874;22;45146;-63
2023/02/01 16:02:25;;;;;;;;;6.67;3.00;;;;;;;;6402519;22;46186;-63
2023/02/01 16:04:51;;;;;;;;;3.00;3.00;;;;;;;;6401729;22;45210;-63
2023/02/01 16:07:29;;;;;;;;;4.33;3.00;;;;;;;;6402764;22;45422;-63
2023/02/01 16:09:58;;;;;;;;;3.67;3.33;;;;;;;;6401945;22;45236;-63
2023/02/01 16:12:26;;;;;;;;;8.67;5.00;;;;;;;;6402047;22;47064;-63
2023/02/01 16:14:51;;;;;;;;;2.00;2.00;;;;;;;;6402396;22;45282;-62
2023/02/01 16:17:16;;;;;;;;;4.33;3.00;;;;;;;;6401958;22;45275;-63
2023/02/01 16:19:42;;;;;;;;;5.00;3.33;;;;;;;;6402723;22;45293;-63
2023/02/01 16:22:07;;;;;;;;;5.67;4.33;;;;;;;;6401121;22;45997;-63
2023/02/01 16:24:32;;;;;;;;;7.67;3.00;;;;;;;;6402316;22;45345;-63
2023/02/01 16:26:58;;;;;;;;;5.33;3.00;;;;;;;;6401587;22;45214;-62
2023/02/01 16:29:23;;;;;;;;;3.00;3.00;;;;;;;;6402966;22;45213;-62
2023/02/01 16:31:50;;;;;;;;;4.75;3.25;;;;;;;;6353066;22;1118880;-63
2023/02/01 16:34:18;;;;;;;;;6.67;4.00;;;;;;;;6403761;22;45295;-62
2023/02/01 16:36:51;;;;;;;;;5.00;4.67;;;;;;;;6404341;22;45296;-63
2023/02/01 16:39:16;;;;;;;;;3.67;3.67;;;;;;;;6404129;22;45281;-62
2023/02/01 16:41:41;;;;;;;;;3.00;1.67;;;;;;;;6404167;22;45213;-62
2023/02/01 16:44:06;;;;;;;;;10.00;7.00;;;;;;;;6404343;22;45676;-62
2023/02/01 16:46:33;;;;;;;;;4.00;4.00;;;;;;;;6404693;22;45151;-62
2023/02/01 16:48:59;;;;;;;;;4.00;4.00;;;;;;;;6404183;22;45250;-62
2023/02/01 16:51:26;;;;;;;;;4.00;2.33;;;;;;;;6403584;22;46288;-62
2023/02/01 16:53:51;;;;;;;;;6.00;5.00;;;;;;;;6404023;22;45364;-63
2023/02/01 16:56:20;;;;;;;;;4.67;3.67;;;;;;;;6403523;22;45311;-62
2023/02/01 16:58:46;;;;;;;;;4.00;3.00;;;;;;;;6404307;22;45674;-62
2023/02/01 17:01:12;;;;;;;;;6.67;4.00;;;;;;;;6403141;22;46182;-63
2023/02/01 17:03:38;;;;;;;;;8.67;3.00;;;;;;;;6404626;22;45281;-62
2023/02/01 17:06:03;;;;;;;;;5.00;4.00;;;;;;;;6404194;22;45343;-62
2023/02/01 17:08:34;;;;;;;;;9.00;3.33;;;;;;;;6404738;22;45382;-62
2023/02/01 17:10:59;;;;;;;;;3.67;3.67;;;;;;;;6404185;22;45233;-63
2023/02/01 17:13:24;;;;;;;;;5.00;3.00;;;;;;;;6403955;22;45168;-63
2023/02/01 17:15:56;;;;;;;;;4.67;4.67;;;;;;;;6375730;22;45242;-62
2023/02/01 17:18:21;;;;;;;;;5.67;3.00;;;;;;;;6375628;22;45496;-62
2023/02/01 17:20:47;;;;;;;;;3.67;3.00;;;;;;;;6404339;22;45345;-63
2023/02/01 17:23:13;;;;;;;;;6.67;4.33;;;;;;;;6403175;22;45258;-63
2023/02/01 17:25:38;;;;;;;;;7.67;6.00;;;;;;;;6403969;22;45371;-61
2023/02/01 17:28:03;;;;;;;;;5.33;4.67;;;;;;;;6402814;22;45541;-63
2023/02/01 17:30:30;;;;;;;;;6.00;5.67;;;;;;;;6400061;22;45314;-63
2023/02/01 17:32:56;;;;;;;;;11.33;6.00;;;;;;;;6401617;22;45313;-63
2023/02/01 17:35:22;;;;;;;;;7.00;6.67;;;;;;;;6374449;22;45273;-63
2023/02/01 17:37:48;;;;;;;;;8.33;5.00;;;;;;;;6402926;22;45178;-63
2023/02/01 17:40:13;;;;;;;;;9.00;6.00;;;;;;;;6400956;22;46221;-63
2023/02/01 17:42:39;;;;;;;;;8.33;7.00;;;;;;;;6402600;22;45310;-63
2023/02/01 17:45:10;;;;;;;;;7.33;6.67;;;;;;;;6403127;22;45641;-63
2023/02/01 17:47:35;;;;;;;;;10.00;8.00;;;;;;;;6395320;22;45284;-63
2023/02/01 17:50:01;;;;;;;;;10.33;10.33;;;;;;;;6400986;22;45459;-63
2023/02/01 17:52:27;;;;;;;;;7.00;6.67;;;;;;;;6399821;22;45441;-63
2023/02/01 17:54:52;;;;;;;;;10.67;9.33;;;;;;;;6371025;22;45329;-64
2023/02/01 17:57:18;;;;;;;;;9.33;7.00;;;;;;;;6370870;22;45441;-64
2023/02/01 17:59:43;;;;;;;;;8.33;7.67;;;;;;;;6400557;22;45972;-62
2023/02/01 18:02:20;;;;;;;;;7.67;7.67;;;;;;;;6400947;22;45286;-63
2023/02/01 18:04:45;;;;;;;;;8.33;8.33;;;;;;;;6373967;22;45445;-63
2023/02/01 18:07:10;;;;;;;;;7.33;7.00;;;;;;;;6401230;22;45711;-63
2023/02/01 18:09:35;;;;;;;;;14.00;6.33;;;;;;;;6402218;22;45358;-63
2023/02/01 18:12:03;;;;;;;;;9.00;7.00;;;;;;;;6401264;22;45344;-62
2023/02/01 18:14:28;;;;;;;;;5.33;3.67;;;;;;;;6402726;22;45330;-64
2023/02/01 18:16:53;;;;;;;;;7.33;6.33;;;;;;;;6401615;22;45277;-63
2023/02/01 18:19:18;;;;;;;;;10.00;8.00;;;;;;;;6402158;22;45274;-63
2023/02/01 18:21:43;;;;;;;;;10.67;5.00;;;;;;;;6402105;22;45211;-65
2023/02/01 18:24:13;;;;;;;;;8.33;6.00;;;;;;;;6402405;22;45147;-63
2023/02/01 18:26:38;;;;;;;;;6.67;6.67;;;;;;;;6400519;22;45493;-62
2023/02/01 18:29:03;;;;;;;;;9.67;7.67;;;;;;;;6402541;22;46259;-63
2023/02/01 18:31:30;;;;;;;;;7.33;6.00;;;;;;;;6401840;22;45490;-63
2023/02/01 18:33:56;;;;;;;;;8.33;6.00;;;;;;;;6402541;22;45272;-62
2023/02/01 18:36:22;;;;;;;;;12.67;8.00;;;;;;;;6403601;22;45366;-63
2023/02/01 18:38:47;;;;;;;;;10.00;8.00;;;;;;;;6403643;22;46001;-62
2023/02/01 18:41:19;;;;;;;;;6.33;6.00;;;;;;;;6373179;22;45282;-62
2023/02/01 18:43:44;;;;;;;;;7.67;6.33;;;;;;;;6403478;22;45310;-63
2023/02/01 18:46:10;;;;;;;;;5.67;4.33;;;;;;;;6403363;22;45262;-65
2023/02/01 18:48:35;;;;;;;;;7.67;7.67;;;;;;;;6401663;22;45564;-64
2023/02/01 18:51:00;;;;;;;;;8.67;6.67;;;;;;;;6402605;22;45553;-64
2023/02/01 18:53:26;;;;;;;;;6.67;5.00;;;;;;;;6403749;22;45757;-64
2023/02/01 18:55:55;;;;;;;;;10.67;6.00;;;;;;;;6401553;22;45459;-64
2023/02/01 18:58:21;;;;;;;;;13.67;4.00;;;;;;;;6401974;22;46144;-64
2023/02/01 19:00:47;;;;;;;;;7.67;6.00;;;;;;;;6402137;22;45547;-64
2023/02/01 19:03:13;;;;;;;;;8.67;7.00;;;;;;;;6404589;22;45414;-64
2023/02/01 19:05:38;;;;;;;;;8.00;6.33;;;;;;;;6406826;22;45577;-64
2023/02/01 19:08:04;;;;;;;;;10.00;6.00;;;;;;;;6404653;22;45985;-64
2023/02/01 19:10:29;;;;;;;;;9.33;6.00;;;;;;;;6405828;22;45410;-64
2023/02/01 19:12:54;;;;;;;;;4.33;4.33;;;;;;;;6402607;22;45272;-65
2023/02/01 19:15:20;;;;;;;;;5.00;5.00;;;;;;;;6402046;22;45198;-63
2023/02/01 19:17:46;;;;;;;;;7.00;6.00;;;;;;;;6402833;22;46072;-63
2023/02/01 19:20:14;;;;;;;;;8.00;5.00;;;;;;;;6402088;22;45276;-64
2023/02/01 19:22:39;;;;;;;;;11.33;8.00;;;;;;;;6402565;22;45206;-64
2023/02/01 19:25:05;;;;;;;;;8.33;5.33;;;;;;;;6401528;22;45356;-64
2023/02/01 19:27:31;;;;;;;;;7.00;5.00;;;;;;;;6397660;22;45419;-64
2023/02/01 19:29:56;;;;;;;;;12.33;8.00;;;;;;;;6400680;22;45393;-64
2023/02/01 19:32:21;;;;;;;;;6.00;6.00;;;;;;;;6400842;22;45374;-65
2023/02/01 19:34:46;;;;;;;;;8.67;6.00;;;;;;;;6400000;22;45520;-65
2023/02/01 19:37:12;;;;;;;;;5.00;5.00;;;;;;;;6402499;22;46052;-62
2023/02/01 19:39:37;;;;;;;;;13.33;6.33;;;;;;;;6402992;22;45288;-63
2023/02/01 19:42:03;;;;;;;;;7.67;7.00;;;;;;;;6402529;22;45127;-63
2023/02/01 19:44:28;;;;;;;;;9.33;6.00;;;;;;;;6403099;22;45692;-63
2023/02/01 19:46:54;;;;;;;;;10.00;8.00;;;;;;;;6401521;22;45710;-63
2023/02/01 19:49:19;;;;;;;;;5.33;5.00;;;;;;;;6401767;22;45529;-62
2023/02/01 19:51:44;;;;;;;;;13.00;6.50;;;;;;;;6402088;22;45387;-62
2023/02/01 19:54:10;;;;;;;;;7.33;4.33;;;;;;;;6402759;22;45609;-63
2023/02/01 19:56:36;;;;;;;;;6.00;6.00;;;;;;;;6403292;22;46183;-63
2023/02/01 19:59:01;;;;;;;;;9.00;6.00;;;;;;;;6403000;22;45374;-63
2023/02/01 20:01:27;;;;;;;;;4.33;4.00;;;;;;;;6404032;22;46091;-63
2023/02/01 20:03:52;;;;;;;;;7.67;6.33;;;;;;;;6402334;22;45398;-62
2023/02/01 20:06:17;;;;;;;;;9.00;6.00;;;;;;;;6403805;22;46230;-62
2023/02/01 20:08:43;;;;;;;;;7.00;4.00;;;;;;;;6403181;22;45643;-63
2023/02/01 20:11:08;;;;;;;;;13.00;9.67;;;;;;;;6403799;22;45817;-62
2023/02/01 20:13:35;;;;;;;;;11.33;7.00;;;;;;;;6398739;22;45182;-62
2023/02/01 20:16:00;;;;;;;;;7.33;6.00;;;;;;;;6399598;22;46273;-62
2023/02/01 20:18:26;;;;;;;;;8.33;6.00;;;;;;;;6402727;22;45212;-62
2023/02/01 20:20:56;;;;;;;;;10.67;9.00;;;;;;;;6402618;22;45539;-62
2023/02/01 20:23:21;;;;;;;;;6.67;6.67;;;;;;;;6401736;22;45460;-63
2023/02/01 20:25:46;;;;;;;;;5.33;5.00;;;;;;;;6402409;22;45314;-63